Big Bear Station Historical Data
Daily Summary for June 2, 2019 Units:  English    Metric   Both
Next Day »
Daily Weekly Monthly Yearly Custom
  High: Low: Average:
Temperature: 63.9 °F 37.9 °F 50 °F
Dew Point: 48.1 °F 37.6 °F 42 °F
Humidity: 99% 47% 77%
Wind Speed: 5.8mph 0mph 1mph
Wind Gust: -999mph - -
Wind- - West
Pressure: 23.46 in 23.39 in -
Precipitation: 0.01 in    
Historical Graphs
 
 
Tabular Data for June 2, 2019
Time Temperature Dew Point Pressure Wind Wind Speed Wind Gust Humidity Rainfall Rate (Hourly)
00:14 41.9 °F 40.8 °F 23.42 in Calm   -999 mph 96% 0.00 in
00:30 41.9 °F 40.8 °F 23.41 in South 1.1 mph -999 mph 96% 0.00 in
00:45 41.5 °F 40.4 °F 23.41 in Calm   -999 mph 96% 0.00 in
01:00 41 °F 39.9 °F 23.41 in Calm   -999 mph 96% 0.00 in
01:15 40.6 °F 39.5 °F 23.41 in Calm   -999 mph 96% 0.00 in
01:30 40.3 °F 39.3 °F 23.41 in Calm   -999 mph 96% 0.00 in
01:46 39.9 °F 39.1 °F 23.41 in Calm   -999 mph 97% 0.00 in
02:01 39.7 °F 38.9 °F 23.41 in Calm   -999 mph 97% 0.00 in
02:16 39.6 °F 39.1 °F 23.40 in Calm   -999 mph 98% 0.00 in
02:31 39 °F 38.5 °F 23.40 in Calm   -999 mph 98% 0.00 in
02:46 39 °F 38.5 °F 23.40 in Calm   -999 mph 98% 0.00 in
03:02 38.8 °F 38.5 °F 23.40 in Calm   -999 mph 99% 0.00 in
03:17 38.8 °F 38.5 °F 23.40 in Calm   -999 mph 99% 0.00 in
03:32 39 °F 38.7 °F 23.40 in Calm   -999 mph 99% 0.00 in
03:47 38.8 °F 38.5 °F 23.39 in Calm   -999 mph 99% 0.00 in
04:03 39 °F 38.7 °F 23.39 in Calm   -999 mph 99% 0.00 in
04:18 38.8 °F 38.5 °F 23.40 in Calm   -999 mph 99% 0.00 in
04:33 38.8 °F 38.5 °F 23.39 in Calm   -999 mph 99% 0.00 in
04:48 38.8 °F 38.5 °F 23.40 in Calm   -999 mph 99% 0.00 in
05:03 38.7 °F 38.4 °F 23.39 in Calm   -999 mph 99% 0.00 in
05:19 38.5 °F 38.2 °F 23.40 in Calm   -999 mph 99% 0.00 in
05:34 38.3 °F 38 °F 23.40 in Calm   -999 mph 99% 0.00 in
05:49 38.1 °F 37.8 °F 23.40 in Calm   -999 mph 99% 0.00 in
06:04 37.9 °F 37.6 °F 23.40 in Calm   -999 mph 99% 0.00 in
06:19 37.9 °F 37.6 °F 23.40 in Calm   -999 mph 99% 0.00 in
06:35 38.1 °F 37.8 °F 23.41 in Calm   -999 mph 99% 0.00 in
06:50 39.4 °F 39.1 °F 23.41 in Calm   -999 mph 99% 0.00 in
07:05 39.2 °F 38.9 °F 23.41 in Calm   -999 mph 99% 0.00 in
07:20 40.3 °F 40 °F 23.41 in Calm   -999 mph 99% 0.00 in
07:35 41 °F 40.7 °F 23.41 in Calm   -999 mph 99% 0.00 in
07:51 42.6 °F 42.3 °F 23.41 in Calm   -999 mph 99% 0.00 in
08:06 44.1 °F 43.8 °F 23.42 in Calm   -999 mph 99% 0.00 in
08:21 44.8 °F 44.5 °F 23.42 in Calm   -999 mph 99% 0.00 in
08:36 45.5 °F 45 °F 23.42 in Calm   -999 mph 98% 0.00 in
08:51 47.8 °F 45.3 °F 23.42 in Calm   -999 mph 91% 0.00 in
09:07 50 °F 46.6 °F 23.43 in Calm   -999 mph 88% 0.00 in
09:22 52.7 °F 45.3 °F 23.42 in Calm   -999 mph 76% 0.00 in
09:37 55 °F 43.9 °F 23.43 in Calm   -999 mph 66% 0.00 in
09:53 57 °F 41 °F 23.42 in NNW 5.8 mph -999 mph 55% 0.00 in
10:08 57.7 °F 39.2 °F 23.42 in Calm   -999 mph 50% 0.00 in
10:23 58.6 °F 39.5 °F 23.43 in ESE 1.7 mph -999 mph 49% 0.00 in
10:38 60.6 °F 42.4 °F 23.43 in NW 4.2 mph -999 mph 51% 0.00 in
10:53 59.9 °F 39.6 °F 23.43 in Calm   -999 mph 47% 0.00 in
11:09 59.2 °F 43.5 °F 23.43 in Calm   -999 mph 56% 0.00 in
11:24 61.5 °F 45.2 °F 23.43 in NNW 4.7 mph -999 mph 55% 0.00 in
11:40 60.1 °F 45.7 °F 23.44 in NW 4.7 mph -999 mph 59% 0.00 in
11:55 61 °F 44.2 °F 23.44 in Calm   -999 mph 54% 0.00 in
12:10 60.8 °F 45 °F 23.44 in Calm   -999 mph 56% 0.00 in
12:25 60.3 °F 43.1 °F 23.44 in Calm   -999 mph 53% 0.00 in
12:40 59.7 °F 44.9 °F 23.44 in Calm   -999 mph 58% 0.00 in
12:56 57 °F 48.1 °F 23.45 in WNW 3.7 mph -999 mph 72% 0.00 in
13:11 55.4 °F 47.3 °F 23.45 in NW 3.2 mph -999 mph 74% 0.00 in
13:26 57 °F 46.9 °F 23.44 in Calm   -999 mph 69% 0.00 in
13:41 58.3 °F 43.1 °F 23.45 in Calm   -999 mph 57% 0.00 in
13:57 59.4 °F 43.2 °F 23.45 in SE 2.2 mph -999 mph 55% 0.00 in
14:12 60.3 °F 43.1 °F 23.44 in Calm   -999 mph 53% 0.00 in
14:27 63.5 °F 47 °F 23.44 in North 3.2 mph -999 mph 55% 0.00 in
14:43 61.9 °F 47.9 °F 23.43 in West 5.3 mph -999 mph 60% 0.00 in
14:58 60.4 °F 47.3 °F 23.43 in North 4.7 mph -999 mph 62% 0.00 in
15:14 60.6 °F 46.6 °F 23.43 in West 3.2 mph -999 mph 60% 0.00 in
15:30 63.3 °F 47.3 °F 23.43 in NNW 3.7 mph -999 mph 56% 0.00 in
15:45 60.4 °F 46 °F 23.43 in North 3.2 mph -999 mph 59% 0.00 in
16:00 63.9 °F 47.4 °F 23.42 in NNE 5.3 mph -999 mph 55% 0.00 in
16:15 62.1 °F 45.7 °F 23.42 in NE 2.7 mph -999 mph 55% 0.00 in
16:30 61.9 °F 45.6 °F 23.42 in WNW 3.7 mph -999 mph 55% 0.00 in
16:46 62.2 °F 45.8 °F 23.42 in NW 4.2 mph -999 mph 55% 0.00 in
17:01 61 °F 44.7 °F 23.42 in NW 1.1 mph -999 mph 55% 0.00 in
17:16 60.1 °F 44.8 °F 23.42 in NNW 2.7 mph -999 mph 57% 0.00 in
17:31 58.1 °F 46 °F 23.42 in NW 2.7 mph -999 mph 64% 0.00 in
17:47 57.2 °F 45.1 °F 23.42 in NW 1.1 mph -999 mph 64% 0.00 in
18:02 57.4 °F 46.1 °F 23.42 in Calm   -999 mph 66% 0.00 in
18:17 58.1 °F 45.6 °F 23.42 in NNW 1.7 mph -999 mph 63% 0.00 in
18:32 57.6 °F 42.9 °F 23.42 in Calm   -999 mph 58% 0.00 in
18:47 59.2 °F 41.6 °F 23.42 in WNW 2.2 mph -999 mph 52% 0.00 in
19:03 57.9 °F 45.4 °F 23.43 in NW 3.2 mph -999 mph 63% 0.00 in
19:18 56.1 °F 43.3 °F 23.44 in NNW 2.7 mph -999 mph 62% 0.00 in
19:34 55.2 °F 42.4 °F 23.44 in Calm   -999 mph 62% 0.00 in
19:49 54.3 °F 41.1 °F 23.44 in Calm   -999 mph 61% 0.00 in
20:04 53.2 °F 40.1 °F 23.44 in Calm   -999 mph 61% 0.00 in
20:19 51.8 °F 40.8 °F 23.44 in Calm   -999 mph 66% 0.00 in
20:34 50.5 °F 40.3 °F 23.43 in Calm   -999 mph 68% 0.00 in
20:50 49.6 °F 39.5 °F 23.44 in Calm   -999 mph 68% 0.00 in
21:05 48.7 °F 39.7 °F 23.45 in Calm   -999 mph 71% 0.00 in
21:20 47.8 °F 39.9 °F 23.45 in South 2.2 mph -999 mph 74% 0.00 in
21:35 47.3 °F 39.8 °F 23.45 in Calm   -999 mph 75% 0.00 in
21:51 46.8 °F 40.3 °F 23.45 in Calm   -999 mph 78% 0.00 in
22:06 46.4 °F 40.2 °F 23.46 in Calm   -999 mph 79% 0.00 in
22:21 46.6 °F 40.4 °F 23.46 in Calm   -999 mph 79% 0.00 in
22:36 46.2 °F 40 °F 23.46 in SSE 2.2 mph -999 mph 79% 0.00 in
22:51 46 °F 40.2 °F 23.45 in Calm   -999 mph 80% 0.00 in
23:07 45.5 °F 39.7 °F 23.45 in SSE 2.2 mph -999 mph 80% 0.00 in
23:22 45.3 °F 40.1 °F 23.45 in Calm   -999 mph 82% 0.00 in
23:37 45.1 °F 40.2 °F 23.45 in Calm   -999 mph 83% 0.00 in
23:52 44.8 °F 40.6 °F 23.45 in Calm   -999 mph 85% 0.00 in
Big Bear CA Weather